Time;durP1;ratioP1;P1;durP2;ratioP2;P2;SDS_P1;SDS_P2;PMS_P1;PMS_P2;Temp;Humidity;BMP_temperature;BMP_pressure;BME280_temperature;BME280_humidity;BME280_pressure;Samples;Min_cycle;Max_cycle;Signal;HPM_P1;HPM_P2
2022/10/26 00:02:29;;;;;;;7.53;5.32;;;;;;;;;;10198144;28;20042;-69
2022/10/26 00:07:28;;;;;;;11.50;5.55;;;;;;;;;;10197548;28;20057;-69
2022/10/26 00:12:26;;;;;;;8.05;5.07;;;;;;;;;;10184794;28;20074;-69
2022/10/26 00:17:26;;;;;;;8.80;5.22;;;;;;;;;;10198052;28;20491;-68
2022/10/26 00:22:24;;;;;;;7.43;6.63;;;;;;;;;;10166926;28;20077;-69
2022/10/26 00:27:23;;;;;;;10.70;5.90;;;;;;;;;;10166609;28;20499;-69
2022/10/26 00:32:21;;;;;;;6.32;5.25;;;;;;;;;;10167867;28;20062;-69
2022/10/26 00:37:20;;;;;;;5.90;5.07;;;;;;;;;;10168090;28;20077;-69
2022/10/26 00:42:20;;;;;;;6.63;5.10;;;;;;;;;;10168449;28;20467;-69
2022/10/26 00:47:20;;;;;;;8.60;5.55;;;;;;;;;;10168018;28;20078;-69
2022/10/26 00:52:19;;;;;;;9.75;5.88;;;;;;;;;;10196565;28;20514;-69
2022/10/26 00:57:19;;;;;;;8.77;5.43;;;;;;;;;;10195514;28;20069;-69
2022/10/26 01:02:17;;;;;;;7.68;5.28;;;;;;;;;;10195511;28;20072;-69
2022/10/26 01:07:16;;;;;;;8.23;6.05;;;;;;;;;;10167252;28;20065;-69
2022/10/26 01:12:14;;;;;;;9.43;5.22;;;;;;;;;;10166130;28;20079;-69
2022/10/26 01:17:21;;;;;;;10.43;6.63;;;;;;;;;;10166937;28;20085;-69
2022/10/26 01:22:20;;;;;;;12.00;10.65;;;;;;;;;;10165304;28;20074;-69
2022/10/26 01:27:22;;;;;;;12.77;7.72;;;;;;;;;;10166406;28;20039;-69
2022/10/26 01:32:24;;;;;;;6.25;5.57;;;;;;;;;;10166443;28;20073;-69
2022/10/26 01:37:24;;;;;;;7.70;5.95;;;;;;;;;;10165717;28;20456;-69
2022/10/26 01:42:23;;;;;;;7.57;6.00;;;;;;;;;;10165796;28;20074;-69
2022/10/26 01:47:23;;;;;;;9.13;4.93;;;;;;;;;;10164652;28;20074;-70
2022/10/26 01:52:22;;;;;;;5.60;4.88;;;;;;;;;;10165205;28;20074;-69
2022/10/26 01:57:21;;;;;;;8.55;5.50;;;;;;;;;;10165083;28;20081;-69
2022/10/26 02:02:34;;;;;;;6.38;5.18;;;;;;;;;;10164501;28;20105;-68
2022/10/26 02:07:39;;;;;;;5.85;5.25;;;;;;;;;;10159900;28;20057;-69
2022/10/26 02:12:41;;;;;;;10.05;6.10;;;;;;;;;;10157199;28;20081;-70
2022/10/26 02:17:44;;;;;;;6.05;5.00;;;;;;;;;;10192307;28;20084;-69
2022/10/26 02:22:46;;;;;;;10.80;6.20;;;;;;;;;;10175597;28;20053;-69
2022/10/26 02:27:49;;;;;;;6.70;5.20;;;;;;;;;;10192300;28;20085;-70
2022/10/26 02:32:50;;;;;;;7.68;4.97;;;;;;;;;;10165091;28;20096;-69
2022/10/26 02:37:50;;;;;;;6.22;4.82;;;;;;;;;;10164383;28;20073;-69
2022/10/26 02:42:50;;;;;;;5.35;4.07;;;;;;;;;;10164020;28;20076;-69
2022/10/26 02:47:48;;;;;;;6.28;5.22;;;;;;;;;;10168907;28;20065;-69
2022/10/26 02:52:52;;;;;;;7.60;5.50;;;;;;;;;;10171449;28;20081;-69
2022/10/26 02:57:51;;;;;;;5.63;4.43;;;;;;;;;;10154209;28;20099;-69
2022/10/26 03:02:52;;;;;;;7.78;4.90;;;;;;;;;;10171135;28;20072;-68
2022/10/26 03:07:52;;;;;;;5.38;4.88;;;;;;;;;;10170192;28;20069;-68
2022/10/26 03:12:51;;;;;;;6.53;4.38;;;;;;;;;;10170387;28;20034;-69
2022/10/26 03:17:49;;;;;;;5.10;4.47;;;;;;;;;;10171108;28;20180;-70
2022/10/26 03:22:48;;;;;;;5.15;4.75;;;;;;;;;;10170977;28;20061;-69
2022/10/26 03:27:47;;;;;;;7.38;4.63;;;;;;;;;;10169246;28;20491;-70
2022/10/26 03:32:46;;;;;;;4.82;4.43;;;;;;;;;;10170609;28;20113;-69
2022/10/26 03:37:44;;;;;;;6.85;4.95;;;;;;;;;;10170435;28;20270;-69
2022/10/26 03:42:43;;;;;;;6.47;4.95;;;;;;;;;;10151502;28;20507;-70
2022/10/26 03:47:46;;;;;;;5.32;4.72;;;;;;;;;;10170305;28;20066;-69
2022/10/26 03:52:44;;;;;;;5.82;4.65;;;;;;;;;;10169944;28;20081;-69
2022/10/26 03:57:46;;;;;;;5.35;4.03;;;;;;;;;;10197511;28;20518;-69
2022/10/26 04:02:53;;;;;;;7.43;4.13;;;;;;;;;;10197968;28;20459;-70
2022/10/26 04:07:54;;;;;;;5.80;5.20;;;;;;;;;;10169436;28;20065;-70
2022/10/26 04:12:52;;;;;;;10.02;6.03;;;;;;;;;;10168488;28;20082;-69
2022/10/26 04:17:56;;;;;;;6.40;5.20;;;;;;;;;;10194353;28;20065;-70
2022/10/26 04:22:58;;;;;;;6.23;4.77;;;;;;;;;;10179875;28;20076;-69
2022/10/26 04:27:56;;;;;;;6.88;5.13;;;;;;;;;;10172915;28;20769;-70
2022/10/26 04:32:56;;;;;;;8.05;4.40;;;;;;;;;;10189248;28;20077;-68
2022/10/26 04:37:57;;;;;;;5.80;5.10;;;;;;;;;;10193509;28;20073;-69
2022/10/26 04:42:55;;;;;;;8.52;4.60;;;;;;;;;;10208721;28;20073;-69
2022/10/26 04:48:01;;;;;;;6.03;4.47;;;;;;;;;;10165993;28;20077;-69
2022/10/26 04:53:00;;;;;;;5.35;4.82;;;;;;;;;;10168356;28;20136;-69
2022/10/26 04:57:58;;;;;;;6.75;5.57;;;;;;;;;;10155709;28;20081;-70
2022/10/26 05:02:59;;;;;;;8.60;4.82;;;;;;;;;;10192006;28;20069;-68
2022/10/26 05:07:59;;;;;;;9.13;7.20;;;;;;;;;;10188607;28;20100;-69
2022/10/26 05:12:58;;;;;;;7.72;4.82;;;;;;;;;;10190718;28;20538;-68
2022/10/26 05:17:57;;;;;;;4.50;4.10;;;;;;;;;;10181438;28;20116;-69
2022/10/26 05:22:56;;;;;;;7.13;4.10;;;;;;;;;;10179343;28;20163;-69
2022/10/26 05:27:58;;;;;;;6.70;4.80;;;;;;;;;;10188584;28;20488;-69
2022/10/26 05:32:57;;;;;;;7.75;5.55;;;;;;;;;;10188002;28;20077;-69
2022/10/26 05:37:55;;;;;;;8.27;5.10;;;;;;;;;;10159892;28;20096;-69
2022/10/26 05:42:59;;;;;;;8.75;7.05;;;;;;;;;;10163632;28;20089;-69
2022/10/26 05:47:57;;;;;;;18.90;13.23;;;;;;;;;;10162478;28;20085;-70
2022/10/26 05:52:59;;;;;;;21.98;14.60;;;;;;;;;;10161211;28;20080;-70
2022/10/26 05:58:00;;;;;;;9.07;7.32;;;;;;;;;;10163373;28;20427;-70
2022/10/26 06:03:06;;;;;;;40.50;27.63;;;;;;;;;;10162428;28;20084;-70
2022/10/26 06:08:08;;;;;;;46.78;33.78;;;;;;;;;;10162912;28;20077;-70
2022/10/26 06:13:08;;;;;;;28.10;17.27;;;;;;;;;;10164566;28;20084;-69
2022/10/26 06:18:13;;;;;;;21.40;12.23;;;;;;;;;;10178453;28;20112;-69
2022/10/26 06:23:24;;;;;;;19.02;11.98;;;;;;;;;;10177922;28;20081;-68
2022/10/26 06:28:30;;;;;;;16.75;8.88;;;;;;;;;;10185588;28;20452;-69
2022/10/26 06:33:34;;;;;;;11.05;8.63;;;;;;;;;;10176095;28;20518;-69
2022/10/26 06:38:36;;;;;;;15.30;9.02;;;;;;;;;;10181754;28;20085;-68
2022/10/26 06:43:36;;;;;;;14.60;11.50;;;;;;;;;;10189240;28;20084;-68
2022/10/26 06:48:39;;;;;;;8.70;6.07;;;;;;;;;;10185123;28;20066;-69
2022/10/26 06:53:41;;;;;;;14.60;5.35;;;;;;;;;;10194282;28;20495;-68
2022/10/26 06:58:41;;;;;;;8.32;5.63;;;;;;;;;;10183743;28;20042;-69
2022/10/26 07:03:40;;;;;;;5.25;4.75;;;;;;;;;;10186105;28;20081;-69
2022/10/26 07:08:38;;;;;;;9.20;5.45;;;;;;;;;;10195569;28;20050;-68
2022/10/26 07:13:36;;;;;;;7.78;6.32;;;;;;;;;;10190042;28;20046;-68
2022/10/26 07:18:38;;;;;;;5.70;5.18;;;;;;;;;;10192176;28;20084;-69
2022/10/26 07:23:36;;;;;;;7.72;4.78;;;;;;;;;;10195775;28;20076;-68
2022/10/26 07:28:35;;;;;;;6.13;5.07;;;;;;;;;;10198388;28;20077;-68
2022/10/26 07:33:33;;;;;;;6.53;4.90;;;;;;;;;;10174174;28;20077;-69
2022/10/26 07:38:39;;;;;;;5.70;4.35;;;;;;;;;;10189251;28;20142;-69
2022/10/26 07:43:37;;;;;;;7.05;6.20;;;;;;;;;;10198700;28;20469;-69
2022/10/26 07:48:35;;;;;;;6.35;4.65;;;;;;;;;;10197135;28;20065;-69
2022/10/26 07:53:34;;;;;;;8.05;5.60;;;;;;;;;;10181392;28;20030;-69
2022/10/26 07:58:33;;;;;;;7.20;5.45;;;;;;;;;;10195686;28;20054;-70
2022/10/26 08:03:32;;;;;;;9.95;6.22;;;;;;;;;;10199210;28;20424;-67
2022/10/26 08:08:30;;;;;;;6.38;5.70;;;;;;;;;;10171395;28;20073;-70
2022/10/26 08:13:28;;;;;;;5.95;4.43;;;;;;;;;;10197536;28;20508;-70
2022/10/26 08:18:28;;;;;;;29.88;25.88;;;;;;;;;;10196617;28;20046;-69
2022/10/26 08:23:26;;;;;;;10.32;6.22;;;;;;;;;;10204233;28;20050;-69
2022/10/26 08:28:24;;;;;;;11.65;5.32;;;;;;;;;;10174890;28;20535;-68
2022/10/26 08:33:23;;;;;;;8.63;4.47;;;;;;;;;;10192689;28;20053;-68
2022/10/26 08:38:23;;;;;;;9.02;4.57;;;;;;;;;;10176669;28;20038;-70
2022/10/26 08:43:25;;;;;;;6.47;5.10;;;;;;;;;;10183439;28;20081;-70
2022/10/26 08:48:25;;;;;;;8.98;4.65;;;;;;;;;;10160707;28;20431;-70
2022/10/26 08:53:29;;;;;;;7.10;4.65;;;;;;;;;;10195086;28;20057;-71
2022/10/26 08:58:33;;;;;;;4.20;3.80;;;;;;;;;;10193776;28;20073;-68
2022/10/26 09:03:31;;;;;;;3.60;3.30;;;;;;;;;;10188225;28;20096;-70
2022/10/26 09:08:37;;;;;;;6.07;5.40;;;;;;;;;;10188593;28;20088;-70
2022/10/26 09:13:42;;;;;;;5.43;4.38;;;;;;;;;;10193750;28;20062;-69
2022/10/26 09:18:47;;;;;;;6.00;5.07;;;;;;;;;;10193345;28;20069;-70
2022/10/26 09:23:52;;;;;;;5.32;4.13;;;;;;;;;;10176094;28;20069;-71
2022/10/26 09:28:50;;;;;;;7.90;4.25;;;;;;;;;;10194221;28;20511;-70
2022/10/26 09:33:48;;;;;;;6.65;4.40;;;;;;;;;;10181196;28;20571;-69
2022/10/26 09:38:51;;;;;;;7.28;4.00;;;;;;;;;;10194221;28;20073;-69
2022/10/26 09:43:51;;;;;;;5.78;4.60;;;;;;;;;;10193334;28;20089;-70
2022/10/26 09:48:52;;;;;;;6.68;4.43;;;;;;;;;;10194017;28;20054;-70
2022/10/26 09:53:52;;;;;;;5.85;4.55;;;;;;;;;;10194355;28;20069;-70
2022/10/26 09:58:52;;;;;;;4.97;4.00;;;;;;;;;;10189550;28;20081;-70
2022/10/26 10:04:08;;;;;;;9.93;6.38;;;;;;;;;;10166351;28;20069;-70
2022/10/26 10:09:10;;;;;;;12.93;9.48;;;;;;;;;;10165995;28;20073;-71
2022/10/26 10:14:09;;;;;;;3.63;2.83;;;;;;;;;;10183919;28;20066;-70
2022/10/26 10:19:21;;;;;;;4.80;3.80;;;;;;;;;;10178239;28;20082;-71
2022/10/26 10:24:28;;;;;;;7.55;4.85;;;;;;;;;;10182688;28;20088;-71
2022/10/26 10:29:26;;;;;;;8.15;5.85;;;;;;;;;;10166771;28;20066;-70
2022/10/26 10:34:25;;;;;;;6.53;4.28;;;;;;;;;;10173548;28;20089;-70
2022/10/26 10:39:35;;;;;;;7.38;4.18;;;;;;;;;;10171882;28;20080;-69
2022/10/26 10:44:34;;;;;;;7.55;4.15;;;;;;;;;;10163307;28;20090;-70
2022/10/26 10:49:32;;;;;;;7.72;6.03;;;;;;;;;;10162804;28;20098;-70
2022/10/26 10:54:32;;;;;;;7.72;3.45;;;;;;;;;;10160350;28;20561;-70
2022/10/26 10:59:53;;;;;;;10.75;6.28;;;;;;;;;;10159723;28;20546;-70
2022/10/26 11:04:58;;;;;;;5.65;3.95;;;;;;;;;;10162144;28;20536;-69
2022/10/26 11:10:00;;;;;;;9.68;6.82;;;;;;;;;;10170139;28;20543;-70
2022/10/26 11:15:02;;;;;;;6.78;4.82;;;;;;;;;;10171052;28;20077;-70
2022/10/26 11:20:02;;;;;;;5.05;3.60;;;;;;;;;;10174907;28;20445;-70
2022/10/26 11:25:03;;;;;;;5.63;2.90;;;;;;;;;;10183277;28;20033;-70
2022/10/26 11:30:06;;;;;;;7.72;7.03;;;;;;;;;;10199110;28;20073;-70
2022/10/26 11:35:11;;;;;;;3.72;3.25;;;;;;;;;;10186413;28;20469;-69
2022/10/26 11:40:16;;;;;;;6.65;4.38;;;;;;;;;;10171735;28;20069;-70
2022/10/26 11:45:19;;;;;;;4.50;3.42;;;;;;;;;;10171344;28;20515;-70
2022/10/26 11:50:20;;;;;;;3.30;3.00;;;;;;;;;;10170471;28;20077;-69
2022/10/26 11:55:18;;;;;;;5.60;3.25;;;;;;;;;;10170025;28;20081;-69
2022/10/26 12:00:20;;;;;;;4.55;4.05;;;;;;;;;;10169565;28;20066;-69
2022/10/26 12:05:20;;;;;;;5.57;3.28;;;;;;;;;;10183833;28;20070;-70
2022/10/26 12:10:23;;;;;;;6.63;4.50;;;;;;;;;;10198226;28;20042;-68
2022/10/26 12:15:26;;;;;;;8.23;6.60;;;;;;;;;;10198093;28;20073;-70
2022/10/26 12:20:51;;;;;;;5.57;4.40;;;;;;;;;;10169176;28;20476;-70
2022/10/26 12:25:50;;;;;;;4.70;4.30;;;;;;;;;;10169543;28;20081;-70
2022/10/26 12:30:49;;;;;;;6.20;3.60;;;;;;;;;;10169013;28;20042;-70
2022/10/26 12:35:48;;;;;;;5.20;4.70;;;;;;;;;;10173952;28;20514;-70
2022/10/26 12:40:46;;;;;;;4.93;3.63;;;;;;;;;;10211301;28;20100;-71
2022/10/26 12:45:45;;;;;;;6.22;4.50;;;;;;;;;;10196364;28;20070;-70
2022/10/26 12:50:45;;;;;;;7.57;4.13;;;;;;;;;;10196999;28;20085;-70
2022/10/26 12:56:01;;;;;;;10.35;4.72;;;;;;;;;;10179542;28;20049;-70
2022/10/26 13:01:15;;;;;;;6.63;3.70;;;;;;;;;;10166963;28;20479;-70
2022/10/26 13:06:27;;;;;;;4.47;3.00;;;;;;;;;;10168184;28;20055;-70
2022/10/26 13:11:30;;;;;;;4.65;3.30;;;;;;;;;;10168009;28;20092;-70
2022/10/26 13:16:29;;;;;;;6.43;3.10;;;;;;;;;;10168148;28;20416;-70
2022/10/26 13:21:28;;;;;;;5.15;3.80;;;;;;;;;;10166839;28;20088;-69
2022/10/26 13:26:27;;;;;;;6.13;3.90;;;;;;;;;;10167380;28;20105;-69
2022/10/26 13:31:44;;;;;;;4.15;3.38;;;;;;;;;;10165490;28;20050;-69
2022/10/26 13:36:45;;;;;;;8.40;5.13;;;;;;;;;;10166315;28;20081;-70
2022/10/26 13:41:47;;;;;;;10.23;4.40;;;;;;;;;;10165936;28;20586;-70
2022/10/26 13:46:46;;;;;;;6.93;4.20;;;;;;;;;;10191768;28;20042;-70
2022/10/26 13:51:48;;;;;;;5.22;3.10;;;;;;;;;;10193638;28;20089;-70
2022/10/26 13:56:53;;;;;;;10.95;4.80;;;;;;;;;;10166471;28;20081;-70
2022/10/26 14:02:05;;;;;;;6.55;4.07;;;;;;;;;;10191375;28;20508;-70
2022/10/26 14:07:05;;;;;;;6.95;4.05;;;;;;;;;;10193418;28;20053;-70
2022/10/26 14:12:04;;;;;;;5.57;4.40;;;;;;;;;;10192918;28;20042;-69
2022/10/26 14:17:02;;;;;;;10.65;5.03;;;;;;;;;;10193849;28;20069;-69
2022/10/26 14:22:01;;;;;;;6.22;4.13;;;;;;;;;;10175700;28;20061;-69
2022/10/26 14:27:00;;;;;;;14.18;4.82;;;;;;;;;;10164273;28;20093;-69
2022/10/26 14:31:59;;;;;;;7.38;6.15;;;;;;;;;;10164868;28;20483;-70
2022/10/26 14:36:59;;;;;;;17.63;13.32;;;;;;;;;;10191444;28;20097;-70
2022/10/26 14:41:58;;;;;;;13.43;7.75;;;;;;;;;;10194546;28;20435;-70
2022/10/26 14:46:58;;;;;;;11.40;7.40;;;;;;;;;;10200802;28;20080;-70
2022/10/26 14:51:57;;;;;;;16.30;13.63;;;;;;;;;;10199960;28;20108;-69
2022/10/26 14:56:56;;;;;;;8.95;5.53;;;;;;;;;;10200401;28;20057;-69
2022/10/26 15:01:54;;;;;;;5.45;3.58;;;;;;;;;;10199920;28;20078;-69
2022/10/26 15:07:00;;;;;;;17.35;5.00;;;;;;;;;;10172151;28;20057;-69
2022/10/26 15:12:01;;;;;;;6.05;4.43;;;;;;;;;;10171525;28;20476;-70
2022/10/26 15:17:00;;;;;;;4.50;3.75;;;;;;;;;;10171311;28;20531;-70
2022/10/26 15:22:00;;;;;;;7.28;4.28;;;;;;;;;;10170785;28;20080;-69
2022/10/26 15:26:58;;;;;;;10.25;4.28;;;;;;;;;;10170714;28;20073;-70
2022/10/26 15:31:59;;;;;;;9.82;3.45;;;;;;;;;;10170668;28;20050;-70
2022/10/26 15:36:59;;;;;;;6.43;4.00;;;;;;;;;;10169790;28;20076;-69
2022/10/26 15:41:58;;;;;;;19.27;5.40;;;;;;;;;;10197815;28;20042;-69
2022/10/26 15:47:00;;;;;;;5.05;4.55;;;;;;;;;;10197845;28;20085;-70
2022/10/26 15:52:08;;;;;;;8.68;4.13;;;;;;;;;;10180167;28;20054;-70
2022/10/26 15:57:09;;;;;;;7.97;4.05;;;;;;;;;;10197113;28;20073;-70
2022/10/26 16:02:12;;;;;;;7.15;4.15;;;;;;;;;;10197898;28;20182;-71
2022/10/26 16:07:13;;;;;;;9.53;4.90;;;;;;;;;;10169119;28;20074;-70
2022/10/26 16:12:12;;;;;;;5.38;4.07;;;;;;;;;;10168491;28;20042;-70
2022/10/26 16:17:10;;;;;;;5.72;4.38;;;;;;;;;;10168157;28;20070;-70
2022/10/26 16:22:09;;;;;;;7.38;4.93;;;;;;;;;;10166828;28;20081;-70
2022/10/26 16:27:08;;;;;;;4.15;3.53;;;;;;;;;;10170157;28;20089;-69
2022/10/26 16:32:07;;;;;;;7.85;4.90;;;;;;;;;;10164154;28;20078;-69
2022/10/26 16:37:05;;;;;;;11.90;6.47;;;;;;;;;;10164755;28;20712;-69
2022/10/26 16:42:05;;;;;;;10.63;5.05;;;;;;;;;;10173798;28;20058;-69
2022/10/26 16:47:05;;;;;;;9.98;5.45;;;;;;;;;;10192636;28;20080;-69
2022/10/26 16:52:03;;;;;;;5.60;4.30;;;;;;;;;;10194591;28;20053;-69
2022/10/26 16:57:02;;;;;;;10.85;5.55;;;;;;;;;;10167233;28;20047;-70
2022/10/26 17:02:00;;;;;;;7.68;4.90;;;;;;;;;;10167216;28;20078;-69
2022/10/26 17:06:59;;;;;;;10.38;6.63;;;;;;;;;;10167138;28;20070;-70
2022/10/26 17:11:59;;;;;;;18.45;7.60;;;;;;;;;;10167368;28;20165;-69
2022/10/26 17:16:59;;;;;;;14.98;8.55;;;;;;;;;;10168957;28;20080;-69
2022/10/26 17:21:57;;;;;;;9.52;6.55;;;;;;;;;;10168899;28;20447;-71
2022/10/26 17:26:57;;;;;;;15.30;6.13;;;;;;;;;;10169302;28;20085;-69
2022/10/26 17:31:55;;;;;;;5.82;4.15;;;;;;;;;;10165827;28;20886;-69
2022/10/26 17:36:53;;;;;;;8.50;4.60;;;;;;;;;;10168166;28;20495;-69
2022/10/26 17:41:51;;;;;;;6.50;5.40;;;;;;;;;;10167264;28;20066;-70
2022/10/26 17:46:51;;;;;;;8.15;3.80;;;;;;;;;;10166532;28;20512;-69
2022/10/26 17:51:49;;;;;;;8.57;3.92;;;;;;;;;;10191786;28;20057;-69
2022/10/26 17:56:47;;;;;;;7.15;5.03;;;;;;;;;;10181088;28;20081;-70
2022/10/26 18:01:46;;;;;;;14.43;4.47;;;;;;;;;;10168278;28;20070;-70
2022/10/26 18:06:46;;;;;;;6.15;4.90;;;;;;;;;;10164719;28;20070;-70
2022/10/26 18:11:44;;;;;;;6.32;4.00;;;;;;;;;;10165550;28;20058;-69
2022/10/26 18:16:42;;;;;;;5.78;3.67;;;;;;;;;;10166954;28;20046;-70
2022/10/26 18:21:41;;;;;;;6.55;4.10;;;;;;;;;;10173544;28;20074;-69
2022/10/26 18:26:40;;;;;;;5.90;3.97;;;;;;;;;;10173349;28;20069;-70
2022/10/26 18:31:38;;;;;;;5.07;3.13;;;;;;;;;;10172680;28;20082;-69
2022/10/26 18:36:37;;;;;;;13.82;9.77;;;;;;;;;;10182535;28;20077;-68
2022/10/26 18:41:41;;;;;;;8.85;5.00;;;;;;;;;;10175535;28;20058;-69
2022/10/26 18:46:41;;;;;;;6.85;4.82;;;;;;;;;;10178740;28;20100;-69
2022/10/26 18:51:39;;;;;;;8.55;4.20;;;;;;;;;;10179191;28;20077;-69
2022/10/26 18:56:37;;;;;;;5.88;3.75;;;;;;;;;;10171654;28;20085;-70
2022/10/26 19:01:40;;;;;;;10.32;4.07;;;;;;;;;;10184261;28;20066;-70
2022/10/26 19:06:40;;;;;;;13.18;5.43;;;;;;;;;;10168253;28;20081;-70
2022/10/26 19:11:40;;;;;;;11.10;5.35;;;;;;;;;;10196689;28;20038;-69
2022/10/26 19:16:40;;;;;;;6.72;4.93;;;;;;;;;;10199130;28;20068;-70
2022/10/26 19:21:44;;;;;;;6.78;4.55;;;;;;;;;;10189152;28;20074;-69
2022/10/26 19:26:43;;;;;;;8.25;4.75;;;;;;;;;;10190624;28;20062;-68
2022/10/26 19:31:43;;;;;;;4.63;3.67;;;;;;;;;;10190187;28;20471;-69
2022/10/26 19:36:43;;;;;;;6.38;4.70;;;;;;;;;;10190467;28;20077;-69
2022/10/26 19:41:43;;;;;;;7.47;3.85;;;;;;;;;;10197988;28;20070;-70
2022/10/26 19:46:42;;;;;;;5.78;3.80;;;;;;;;;;10195306;28;20093;-70
2022/10/26 19:51:41;;;;;;;6.82;4.20;;;;;;;;;;10194532;28;20093;-69
2022/10/26 19:56:39;;;;;;;9.65;4.72;;;;;;;;;;10197928;28;20115;-69
2022/10/26 20:01:37;;;;;;;7.82;4.32;;;;;;;;;;10196851;28;20081;-70
2022/10/26 20:06:37;;;;;;;5.82;5.13;;;;;;;;;;10175430;28;20081;-70
2022/10/26 20:11:37;;;;;;;8.10;3.53;;;;;;;;;;10170554;28;20072;-70
2022/10/26 20:16:35;;;;;;;8.75;4.13;;;;;;;;;;10172831;28;20050;-70
2022/10/26 20:21:34;;;;;;;6.63;4.07;;;;;;;;;;10169045;28;20074;-69
2022/10/26 20:26:33;;;;;;;5.68;3.28;;;;;;;;;;10169205;28;20088;-69
2022/10/26 20:31:32;;;;;;;8.68;3.80;;;;;;;;;;10169212;28;20065;-70
2022/10/26 20:36:30;;;;;;;9.93;7.53;;;;;;;;;;10168560;28;20057;-70
2022/10/26 20:41:28;;;;;;;6.80;4.10;;;;;;;;;;10168611;28;20042;-70
2022/10/26 20:46:28;;;;;;;8.77;3.95;;;;;;;;;;10169735;28;20077;-69
2022/10/26 20:51:37;;;;;;;4.60;3.65;;;;;;;;;;10168117;28;20095;-69
2022/10/26 20:56:41;;;;;;;6.10;3.90;;;;;;;;;;10172444;28;20524;-69
2022/10/26 21:01:41;;;;;;;6.78;4.15;;;;;;;;;;10167055;28;20065;-69
2022/10/26 21:06:39;;;;;;;4.65;3.20;;;;;;;;;;10167570;28;20085;-68
2022/10/26 21:11:38;;;;;;;9.75;4.28;;;;;;;;;;10169693;28;20524;-69
2022/10/26 21:16:36;;;;;;;3.88;3.35;;;;;;;;;;10189230;28;20046;-69
2022/10/26 21:21:35;;;;;;;5.75;3.90;;;;;;;;;;10194951;28;20038;-70
2022/10/26 21:26:34;;;;;;;8.07;4.40;;;;;;;;;;10194604;28;20073;-70
2022/10/26 21:31:32;;;;;;;6.03;3.72;;;;;;;;;;10193881;28;20054;-70
2022/10/26 21:36:31;;;;;;;5.13;3.80;;;;;;;;;;10194515;28;20045;-70
2022/10/26 21:41:30;;;;;;;3.92;3.50;;;;;;;;;;10193348;28;20066;-70
2022/10/26 21:46:29;;;;;;;4.28;3.83;;;;;;;;;;10191553;28;20080;-69
2022/10/26 21:51:27;;;;;;;8.02;5.50;;;;;;;;;;10191483;28;20060;-69
2022/10/26 21:56:25;;;;;;;4.30;3.88;;;;;;;;;;10194158;28;20073;-69
2022/10/26 22:01:25;;;;;;;5.10;3.50;;;;;;;;;;10175181;28;20049;-69
2022/10/26 22:06:23;;;;;;;9.43;5.35;;;;;;;;;;10175822;28;20080;-69
2022/10/26 22:11:22;;;;;;;15.20;10.32;;;;;;;;;;10193624;28;20076;-69
2022/10/26 22:16:21;;;;;;;17.80;9.73;;;;;;;;;;10192786;28;20073;-68
2022/10/26 22:21:22;;;;;;;12.98;7.28;;;;;;;;;;10193383;28;20065;-68
2022/10/26 22:26:21;;;;;;;11.13;6.95;;;;;;;;;;10194634;28;20069;-69
2022/10/26 22:31:20;;;;;;;12.00;7.65;;;;;;;;;;10194577;28;20089;-69
2022/10/26 22:36:18;;;;;;;10.73;7.32;;;;;;;;;;10192743;28;20077;-70
2022/10/26 22:41:20;;;;;;;8.50;6.70;;;;;;;;;;10193313;28;20041;-69
2022/10/26 22:46:22;;;;;;;9.73;7.15;;;;;;;;;;10193110;28;20089;-69
2022/10/26 22:51:21;;;;;;;12.18;7.35;;;;;;;;;;10192678;28;20057;-69
2022/10/26 22:56:21;;;;;;;9.18;6.18;;;;;;;;;;10193131;28;20078;-70
2022/10/26 23:01:21;;;;;;;11.95;5.65;;;;;;;;;;10192731;28;20146;-69
2022/10/26 23:06:20;;;;;;;6.78;4.70;;;;;;;;;;10181989;28;20225;-69
2022/10/26 23:11:19;;;;;;;5.95;4.25;;;;;;;;;;10200650;28;20046;-70
2022/10/26 23:16:19;;;;;;;8.13;4.63;;;;;;;;;;10200702;28;20463;-69
2022/10/26 23:21:17;;;;;;;5.40;4.75;;;;;;;;;;10199161;28;20077;-70
2022/10/26 23:26:16;;;;;;;5.60;4.55;;;;;;;;;;10200075;28;20069;-70
2022/10/26 23:31:15;;;;;;;4.00;3.60;;;;;;;;;;10199958;28;20057;-70
2022/10/26 23:36:15;;;;;;;7.22;3.65;;;;;;;;;;10200455;28;20053;-70
2022/10/26 23:41:13;;;;;;;6.47;3.53;;;;;;;;;;10199724;28;20041;-69
2022/10/26 23:46:12;;;;;;;5.22;3.83;;;;;;;;;;10199044;28;20077;-69
2022/10/26 23:51:10;;;;;;;3.45;3.15;;;;;;;;;;10198874;28;20045;-70
2022/10/26 23:56:10;;;;;;;5.68;3.17;;;;;;;;;;10198693;28;20079;-69
